createdAt,value
2023-05-22T00:01:56.701Z,21.40
2023-05-22T00:04:23.945Z,21.50
2023-05-22T00:06:50.835Z,21.50
2023-05-22T00:09:17.932Z,21.60
2023-05-22T00:11:45.025Z,21.60
2023-05-22T00:14:13.511Z,21.60
2023-05-22T00:16:41.120Z,21.60
2023-05-22T00:19:13.296Z,21.50
2023-05-22T00:21:40.468Z,21.50
2023-05-22T00:24:07.554Z,21.40
2023-05-22T00:26:34.408Z,21.40
2023-05-22T00:29:01.331Z,21.30
2023-05-22T00:31:29.044Z,21.20
2023-05-22T00:33:55.900Z,21.10
2023-05-22T00:36:23.676Z,21.00
2023-05-22T00:38:50.887Z,21.00
2023-05-22T00:41:17.777Z,21.00
2023-05-22T00:43:46.297Z,21.00
2023-05-22T00:46:13.220Z,21.00
2023-05-22T00:48:40.195Z,21.00
2023-05-22T00:51:08.100Z,20.90
2023-05-22T00:53:35.403Z,20.90
2023-05-22T00:56:02.822Z,20.80
2023-05-22T00:58:29.690Z,20.80
2023-05-22T01:00:57.172Z,20.80
2023-05-22T01:03:26.870Z,20.80
2023-05-22T01:05:54.930Z,20.70
2023-05-22T01:08:22.181Z,20.70
2023-05-22T01:16:47.039Z,20.70
2023-05-22T01:19:39.478Z,20.60
2023-05-22T01:22:31.962Z,20.60
2023-05-22T01:25:12.109Z,20.60
2023-05-22T01:28:26.835Z,20.60
2023-05-22T01:31:11.431Z,20.60
2023-05-22T01:33:59.083Z,20.70
2023-05-22T01:36:31.421Z,20.70
2023-05-22T01:39:01.474Z,20.70
2023-05-22T01:41:29.899Z,20.80
2023-05-22T01:43:57.266Z,20.80
2023-05-22T01:46:28.941Z,20.90
2023-05-22T01:48:56.606Z,20.90
2023-05-22T01:51:50.864Z,20.90
2023-05-22T01:54:32.638Z,21.00
2023-05-22T01:57:24.977Z,21.00
2023-05-22T01:59:57.842Z,21.00
2023-05-22T02:02:26.016Z,21.00
2023-05-22T02:04:57.482Z,21.00
2023-05-22T02:07:25.934Z,20.90
2023-05-22T02:09:55.620Z,21.00
2023-05-22T02:12:26.160Z,21.00
2023-05-22T02:14:53.887Z,20.90
2023-05-22T02:17:22.038Z,20.90
2023-05-22T02:19:48.894Z,20.90
2023-05-22T02:22:15.840Z,20.90
2023-05-22T02:24:46.741Z,20.90
2023-05-22T02:27:14.553Z,20.90
2023-05-22T02:29:41.444Z,20.90
2023-05-22T02:32:08.549Z,20.90
2023-05-22T02:34:37.883Z,20.80
2023-05-22T02:37:05.121Z,20.70
2023-05-22T02:39:32.356Z,20.70
2023-05-22T02:41:59.223Z,20.80
2023-05-22T02:44:26.112Z,20.80
2023-05-22T02:46:53.079Z,20.80
2023-05-22T02:49:19.954Z,20.80
2023-05-22T02:51:47.889Z,20.80
2023-05-22T02:54:16.136Z,20.80
2023-05-22T02:56:43.613Z,20.70
2023-05-22T02:59:11.245Z,20.70
2023-05-22T03:01:38.814Z,20.80
2023-05-22T03:04:06.658Z,20.80
2023-05-22T03:06:35.151Z,20.80
2023-05-22T03:09:03.945Z,20.70
2023-05-22T03:11:31.840Z,20.70
2023-05-22T03:13:58.737Z,20.70
2023-05-22T03:16:26.661Z,20.70
2023-05-22T03:19:09.778Z,20.70
2023-05-22T03:21:36.882Z,20.70
2023-05-22T03:24:05.120Z,20.70
2023-05-22T03:26:33.088Z,20.70
2023-05-22T03:29:01.983Z,20.60
2023-05-22T03:31:33.742Z,20.60
2023-05-22T03:34:19.538Z,20.70
2023-05-22T03:36:48.453Z,20.70
2023-05-22T03:39:16.967Z,20.70
2023-05-22T03:41:53.018Z,20.70
2023-05-22T03:44:20.516Z,20.70
2023-05-22T03:46:47.391Z,20.70
2023-05-22T03:49:15.251Z,20.70
2023-05-22T03:51:42.027Z,20.70
2023-05-22T03:54:09.100Z,20.70
2023-05-22T03:56:35.895Z,20.70
2023-05-22T03:59:02.836Z,20.70
2023-05-22T04:01:29.958Z,20.60
2023-05-22T04:03:56.918Z,20.60
2023-05-22T04:06:23.805Z,20.60
2023-05-22T04:08:50.633Z,20.60
2023-05-22T04:11:18.539Z,20.60
2023-05-22T04:13:45.955Z,20.50
2023-05-22T04:16:12.831Z,20.50
2023-05-22T04:18:39.835Z,20.50
2023-05-22T04:21:09.703Z,20.60
2023-05-22T04:23:37.253Z,20.60
2023-05-22T04:26:04.629Z,20.60
2023-05-22T04:28:31.504Z,20.60
2023-05-22T04:30:58.478Z,20.60
2023-05-22T04:33:25.598Z,20.60
2023-05-22T04:35:52.463Z,20.60
2023-05-22T04:38:19.979Z,20.60
2023-05-22T04:40:47.752Z,20.60
2023-05-22T04:43:14.814Z,20.60
2023-05-22T04:45:42.952Z,20.50
2023-05-22T04:48:12.003Z,20.40
2023-05-22T04:50:39.169Z,20.30
2023-05-22T04:53:06.778Z,20.30
2023-05-22T04:55:37.014Z,20.30
2023-05-22T04:58:05.758Z,20.20
2023-05-22T05:00:32.686Z,20.30
2023-05-22T05:03:00.494Z,20.20
2023-05-22T05:05:27.732Z,20.20
2023-05-22T05:07:54.725Z,20.20
2023-05-22T05:10:21.791Z,20.20
2023-05-22T05:12:48.764Z,20.20
2023-05-22T05:15:15.808Z,20.20
2023-05-22T05:17:42.930Z,20.20
2023-05-22T05:20:14.304Z,20.30
2023-05-22T05:22:41.298Z,20.30
2023-05-22T05:25:10.832Z,20.30
2023-05-22T05:27:39.246Z,20.30
2023-05-22T05:30:08.667Z,20.40
2023-05-22T05:33:13.641Z,20.50
2023-05-22T05:36:03.350Z,20.60
2023-05-22T05:38:31.436Z,20.60
2023-05-22T05:40:58.404Z,20.70
2023-05-22T05:43:25.820Z,20.70
2023-05-22T05:45:56.176Z,20.70
2023-05-22T05:48:23.128Z,20.70
2023-05-22T05:50:50.004Z,20.80
2023-05-22T05:53:17.027Z,20.80
2023-05-22T05:55:49.370Z,20.90
2023-05-22T05:58:17.533Z,21.00
2023-05-22T06:01:02.808Z,21.10
2023-05-22T06:03:29.986Z,21.30
2023-05-22T06:06:07.385Z,21.40
2023-05-22T06:08:52.964Z,21.40
2023-05-22T06:11:26.594Z,21.50
2023-05-22T06:13:54.800Z,21.60
2023-05-22T06:16:21.780Z,21.70
2023-05-22T06:18:49.518Z,21.90
2023-05-22T06:21:17.895Z,22.00
2023-05-22T06:23:44.685Z,22.20
2023-05-22T06:26:11.564Z,22.30
2023-05-22T06:28:40.821Z,22.40
2023-05-22T06:31:09.887Z,22.50
2023-05-22T06:33:38.100Z,22.50
2023-05-22T06:36:05.645Z,22.60
2023-05-22T06:38:32.661Z,22.80
2023-05-22T06:41:00.026Z,22.90
2023-05-22T06:43:27.198Z,22.80
2023-05-22T06:46:11.426Z,22.80
2023-05-22T06:48:58.627Z,22.80
2023-05-22T06:51:29.375Z,22.80
2023-05-22T06:54:06.775Z,22.90
2023-05-22T06:56:33.926Z,23.00
2023-05-22T06:59:07.222Z,23.10
2023-05-22T07:01:49.065Z,23.20
2023-05-22T07:04:21.246Z,23.40
2023-05-22T07:07:01.176Z,23.50
2023-05-22T07:09:29.843Z,23.60
2023-05-22T07:11:56.716Z,23.70
2023-05-22T07:14:24.541Z,23.90
2023-05-22T07:16:51.607Z,23.90
2023-05-22T07:19:25.624Z,24.00
2023-05-22T07:21:54.516Z,24.10
2023-05-22T07:24:22.297Z,24.20
2023-05-22T07:26:50.567Z,24.40
2023-05-22T07:29:17.810Z,24.40
2023-05-22T07:31:48.238Z,24.50
2023-05-22T07:34:15.489Z,24.60
2023-05-22T07:36:43.974Z,24.70
2023-05-22T07:39:10.916Z,24.70
2023-05-22T07:41:40.978Z,24.90
2023-05-22T07:44:11.466Z,25.00
2023-05-22T07:46:38.739Z,24.90
2023-05-22T07:49:12.233Z,24.80
2023-05-22T07:51:41.824Z,24.80
2023-05-22T07:54:10.140Z,24.80
2023-05-22T07:56:43.023Z,24.90
2023-05-22T07:59:12.042Z,25.00
2023-05-22T08:01:40.232Z,25.10
2023-05-22T08:04:07.312Z,25.30
2023-05-22T08:06:37.768Z,25.40
2023-05-22T08:09:05.028Z,25.40
2023-05-22T08:11:32.774Z,25.50
2023-05-22T08:13:59.644Z,25.50
2023-05-22T08:16:26.564Z,25.60
2023-05-22T08:18:53.672Z,25.70
2023-05-22T08:21:20.763Z,25.80
2023-05-22T08:23:47.692Z,25.90
2023-05-22T08:26:15.342Z,26.00
2023-05-22T08:28:44.259Z,26.20
2023-05-22T08:31:12.135Z,26.20
2023-05-22T08:33:39.819Z,26.40
2023-05-22T08:36:06.983Z,26.40
2023-05-22T08:38:34.149Z,26.50
2023-05-22T08:41:01.326Z,26.60
2023-05-22T08:43:29.049Z,26.80
2023-05-22T08:46:08.628Z,26.90
2023-05-22T08:48:35.631Z,27.10
2023-05-22T08:51:07.182Z,27.20
2023-05-22T08:53:38.716Z,27.40
2023-05-22T08:56:07.466Z,27.50
2023-05-22T08:58:36.094Z,27.60
2023-05-22T09:01:07.360Z,27.60
2023-05-22T09:03:36.880Z,27.70
2023-05-22T09:06:04.633Z,27.70
2023-05-22T09:08:31.486Z,27.70
2023-05-22T09:10:58.469Z,27.80
2023-05-22T09:13:27.395Z,27.70
2023-05-22T09:16:08.555Z,27.60
2023-05-22T09:18:37.353Z,27.80
2023-05-22T09:21:11.558Z,27.90
2023-05-22T09:23:41.897Z,28.10
2023-05-22T09:26:08.840Z,28.20
2023-05-22T09:28:37.516Z,28.40
2023-05-22T09:31:06.253Z,28.70
2023-05-22T09:33:33.391Z,28.80
2023-05-22T09:36:01.511Z,28.80
2023-05-22T09:38:30.801Z,28.70
2023-05-22T09:40:57.840Z,28.80
2023-05-22T09:43:25.663Z,28.90
2023-05-22T09:46:02.334Z,28.90
2023-05-22T09:48:29.696Z,29.10
2023-05-22T09:50:59.710Z,29.40
2023-05-22T09:53:31.117Z,29.70
2023-05-22T09:56:00.048Z,30.00
2023-05-22T09:58:30.333Z,30.20
2023-05-22T10:00:58.196Z,30.50
2023-05-22T10:03:26.538Z,30.70
2023-05-22T10:05:58.727Z,30.80
2023-05-22T10:08:29.368Z,30.90
2023-05-22T10:10:56.577Z,31.00
2023-05-22T10:13:25.249Z,31.20
2023-05-22T10:15:53.300Z,31.30
2023-05-22T10:18:20.518Z,31.50
2023-05-22T10:20:48.352Z,31.70
2023-05-22T10:23:18.558Z,32.00
2023-05-22T10:25:46.189Z,32.40
2023-05-22T10:28:20.053Z,32.70
2023-05-22T10:30:54.731Z,33.00
2023-05-22T10:33:38.856Z,33.30
2023-05-22T10:36:10.509Z,33.50
2023-05-22T10:38:43.044Z,33.50
2023-05-22T10:41:10.722Z,33.60
2023-05-22T10:43:44.345Z,33.90
2023-05-22T10:46:13.046Z,34.20
2023-05-22T10:48:51.743Z,34.50
2023-05-22T10:51:21.714Z,34.70
2023-05-22T10:54:05.584Z,34.60
2023-05-22T10:56:34.352Z,34.80
2023-05-22T10:59:04.859Z,34.70
2023-05-22T11:01:36.139Z,34.00
2023-05-22T11:04:15.984Z,33.40
2023-05-22T11:06:49.809Z,34.20
2023-05-22T11:09:34.016Z,35.30
2023-05-22T11:12:24.527Z,36.30
2023-05-22T11:14:59.316Z,37.20
2023-05-22T11:17:30.336Z,37.40
2023-05-22T11:20:22.505Z,37.30
2023-05-22T11:23:01.667Z,37.30
2023-05-22T11:25:29.575Z,37.40
2023-05-22T11:27:57.638Z,37.40
2023-05-22T11:30:30.403Z,37.80
2023-05-22T11:32:58.851Z,38.50
2023-05-22T11:35:26.567Z,39.10
2023-05-22T11:37:54.769Z,39.50
2023-05-22T11:40:27.107Z,39.70
2023-05-22T11:42:54.458Z,40.10
2023-05-22T11:45:21.875Z,40.60
2023-05-22T11:47:49.673Z,40.70
2023-05-22T11:50:22.627Z,41.10
2023-05-22T11:52:59.467Z,41.60
2023-05-22T11:55:26.371Z,41.70
2023-05-22T11:57:55.423Z,41.90
2023-05-22T12:00:22.320Z,42.00
2023-05-22T12:02:49.308Z,40.30
2023-05-22T12:05:16.883Z,38.10
2023-05-22T12:07:44.177Z,38.40
2023-05-22T12:10:11.497Z,39.70
2023-05-22T12:12:38.957Z,40.90
2023-05-22T12:15:09.448Z,41.20
2023-05-22T12:17:38.217Z,39.20
2023-05-22T12:20:06.247Z,37.20
2023-05-22T12:22:33.115Z,35.40
2023-05-22T12:25:00.016Z,34.20
2023-05-22T12:27:33.266Z,33.30
2023-05-22T12:30:10.378Z,33.60
2023-05-22T12:32:37.314Z,34.50
2023-05-22T12:35:04.526Z,34.30
2023-05-22T12:37:33.996Z,33.80
2023-05-22T12:40:03.408Z,33.30
2023-05-22T12:42:30.268Z,32.70
2023-05-22T12:45:00.867Z,32.10
2023-05-22T12:47:27.954Z,31.50
2023-05-22T12:49:54.911Z,31.10
2023-05-22T12:52:21.876Z,30.60
2023-05-22T12:54:48.777Z,30.30
2023-05-22T12:57:16.913Z,30.00
2023-05-22T12:59:44.007Z,29.80
2023-05-22T13:02:11.434Z,29.60
2023-05-22T13:04:38.421Z,29.40
2023-05-22T13:07:05.606Z,29.20
2023-05-22T13:09:32.501Z,29.00
2023-05-22T13:12:00.104Z,28.90
2023-05-22T13:14:27.128Z,28.80
2023-05-22T13:16:54.056Z,28.50
2023-05-22T13:19:21.090Z,28.30
2023-05-22T13:21:47.933Z,28.20
2023-05-22T13:24:14.736Z,28.10
2023-05-22T13:26:41.515Z,27.90
2023-05-22T13:29:08.417Z,27.80
2023-05-22T13:31:37.575Z,27.60
2023-05-22T13:34:05.243Z,27.50
2023-05-22T13:36:32.464Z,27.50
2023-05-22T13:38:59.365Z,27.60
2023-05-22T13:41:26.420Z,27.50
2023-05-22T13:43:53.455Z,27.40
2023-05-22T13:46:22.119Z,27.20
2023-05-22T13:48:49.402Z,27.10
2023-05-22T13:51:16.644Z,27.10
2023-05-22T13:53:43.485Z,27.20
2023-05-22T13:56:10.377Z,27.60
2023-05-22T13:58:37.291Z,27.90
2023-05-22T14:01:04.139Z,28.10
2023-05-22T14:03:31.183Z,28.30
2023-05-22T14:05:58.121Z,28.50
2023-05-22T14:08:25.164Z,28.50
2023-05-22T14:10:52.066Z,28.40
2023-05-22T14:13:19.049Z,28.30
2023-05-22T14:15:49.141Z,28.20
2023-05-22T14:18:16.724Z,28.10
2023-05-22T14:20:44.415Z,28.00
2023-05-22T14:23:12.676Z,28.00
2023-05-22T14:25:45.696Z,28.00
2023-05-22T14:28:13.006Z,27.90
2023-05-22T14:30:40.528Z,28.00
2023-05-22T14:33:07.913Z,28.00
2023-05-22T14:35:34.776Z,28.00
2023-05-22T14:38:01.867Z,27.90
2023-05-22T14:40:28.696Z,27.80
2023-05-22T14:42:55.596Z,27.70
2023-05-22T14:45:22.492Z,27.70
2023-05-22T14:47:49.413Z,27.60
2023-05-22T14:50:19.931Z,27.60
2023-05-22T14:52:48.309Z,27.50
2023-05-22T14:55:15.993Z,27.40
2023-05-22T14:57:42.879Z,27.30
2023-05-22T15:00:11.065Z,27.30
2023-05-22T15:02:38.358Z,27.20
2023-05-22T15:05:07.029Z,26.90
2023-05-22T15:10:05.192Z,26.50
2023-05-22T15:12:32.589Z,26.40
2023-05-22T15:14:59.586Z,26.30
2023-05-22T15:17:26.494Z,26.30
2023-05-22T15:19:53.427Z,26.30
2023-05-22T15:22:20.489Z,26.30
2023-05-22T15:24:48.248Z,26.40
2023-05-22T15:27:15.152Z,26.40
2023-05-22T15:29:42.062Z,26.40
2023-05-22T15:32:09.562Z,26.30
2023-05-22T15:34:36.554Z,26.20
2023-05-22T15:37:03.437Z,26.30
2023-05-22T15:39:30.379Z,26.10
2023-05-22T15:42:05.820Z,26.00
2023-05-22T15:44:33.605Z,26.00
2023-05-22T15:47:00.927Z,26.00
2023-05-22T15:49:30.877Z,26.10
2023-05-22T15:51:58.842Z,26.10
2023-05-22T15:54:25.846Z,26.10
2023-05-22T15:56:52.908Z,26.20
2023-05-22T15:59:19.698Z,26.10
2023-05-22T16:01:46.731Z,26.00
2023-05-22T16:04:13.714Z,26.00
2023-05-22T16:06:40.977Z,26.00
2023-05-22T16:09:08.090Z,26.10
2023-05-22T16:11:35.163Z,26.10
2023-05-22T16:14:01.974Z,26.00
2023-05-22T16:16:28.990Z,26.10
2023-05-22T16:18:55.876Z,26.10
2023-05-22T16:21:22.772Z,26.00
2023-05-22T16:23:49.598Z,25.90
2023-05-22T16:26:16.883Z,25.90
2023-05-22T16:28:43.791Z,25.80
2023-05-22T16:31:12.805Z,25.80
2023-05-22T16:33:39.825Z,25.80
2023-05-22T16:36:07.142Z,25.80
2023-05-22T16:38:34.061Z,25.80
2023-05-22T16:41:01.338Z,25.80
2023-05-22T16:43:28.167Z,25.80
2023-05-22T16:45:55.040Z,25.70
2023-05-22T16:48:21.965Z,25.70
2023-05-22T16:50:48.881Z,25.60
2023-05-22T16:53:17.370Z,25.60
2023-05-22T16:55:44.483Z,25.60
2023-05-22T16:58:12.808Z,25.60
2023-05-22T17:00:40.425Z,25.70
2023-05-22T17:03:08.260Z,25.70
2023-05-22T17:05:36.662Z,25.80
2023-05-22T17:08:03.688Z,25.80
2023-05-22T17:10:30.807Z,25.70
2023-05-22T17:12:57.692Z,25.50
2023-05-22T17:15:24.585Z,25.50
2023-05-22T17:17:51.529Z,25.50
2023-05-22T17:20:18.975Z,25.60
2023-05-22T17:22:45.906Z,25.60
2023-05-22T17:25:13.890Z,25.50
2023-05-22T17:27:40.899Z,25.50
2023-05-22T17:30:08.479Z,25.50
2023-05-22T17:32:35.688Z,25.50
2023-05-22T17:35:02.933Z,25.50
2023-05-22T17:37:29.838Z,25.50
2023-05-22T17:39:56.703Z,25.30
2023-05-22T17:42:23.553Z,25.30
2023-05-22T17:44:50.611Z,25.30
2023-05-22T17:47:18.328Z,25.30
2023-05-22T17:49:45.347Z,25.30
2023-05-22T17:52:13.385Z,25.20
2023-05-22T17:54:40.203Z,25.10
2023-05-22T17:57:07.091Z,25.10
2023-05-22T17:59:34.011Z,25.10
2023-05-22T18:02:00.977Z,25.10
2023-05-22T18:04:27.970Z,25.10
2023-05-22T18:06:54.835Z,25.10
2023-05-22T18:09:21.629Z,25.00
2023-05-22T18:11:53.549Z,25.00
2023-05-22T18:14:20.535Z,25.10
2023-05-22T18:16:47.531Z,25.00
2023-05-22T18:19:14.683Z,24.90
2023-05-22T18:21:41.811Z,24.90
2023-05-22T18:24:08.808Z,24.80
2023-05-22T18:26:35.704Z,24.80
2023-05-22T18:29:02.612Z,24.70
2023-05-22T18:31:29.704Z,24.60
2023-05-22T18:33:56.621Z,24.50
2023-05-22T18:36:23.439Z,24.40
2023-05-22T18:38:50.419Z,24.40
2023-05-22T18:41:17.274Z,24.30
2023-05-22T18:43:44.105Z,24.30
2023-05-22T18:46:10.916Z,24.30
2023-05-22T18:48:37.752Z,24.20
2023-05-22T18:51:04.721Z,24.10
2023-05-22T18:53:31.615Z,24.00
2023-05-22T18:55:58.591Z,24.00
2023-05-22T18:58:25.659Z,23.90
2023-05-22T19:00:55.490Z,23.90
2023-05-22T19:03:22.556Z,23.70
2023-05-22T19:05:49.493Z,23.70
2023-05-22T19:08:16.687Z,23.50
2023-05-22T19:10:43.573Z,23.50
2023-05-22T19:13:10.622Z,23.40
2023-05-22T19:15:38.361Z,23.40
2023-05-22T19:18:05.425Z,23.30
2023-05-22T19:20:32.389Z,23.40
2023-05-22T19:22:59.286Z,23.40
2023-05-22T19:25:26.205Z,23.30
2023-05-22T19:27:53.071Z,23.30
2023-05-22T19:30:21.863Z,23.30
2023-05-22T19:32:55.705Z,23.30
2023-05-22T19:35:22.776Z,23.20
2023-05-22T19:37:50.210Z,23.10
2023-05-22T19:40:17.252Z,23.10
2023-05-22T19:42:44.313Z,23.10
2023-05-22T19:45:11.434Z,23.10
2023-05-22T19:47:38.351Z,23.00
2023-05-22T19:50:06.128Z,23.00
2023-05-22T19:52:33.019Z,22.90
2023-05-22T19:54:59.939Z,22.80
2023-05-22T19:57:27.189Z,22.70
2023-05-22T19:59:54.481Z,22.70
2023-05-22T20:02:21.424Z,22.60
2023-05-22T20:04:48.494Z,22.60
2023-05-22T20:07:15.747Z,22.50
2023-05-22T20:09:42.893Z,22.40
2023-05-22T20:12:10.452Z,22.30
2023-05-22T20:14:37.647Z,22.30
2023-05-22T20:17:04.833Z,22.30
2023-05-22T20:19:34.362Z,22.30
2023-05-22T20:22:02.106Z,22.30
2023-05-22T20:24:29.586Z,22.30
2023-05-22T20:26:56.776Z,22.20
2023-05-22T20:29:24.069Z,22.30
2023-05-22T20:31:54.532Z,22.30
2023-05-22T20:34:22.326Z,22.20
2023-05-22T20:36:49.222Z,22.20
2023-05-22T20:39:18.133Z,22.30
2023-05-22T20:41:46.544Z,22.30
2023-05-22T20:44:13.498Z,22.30
2023-05-22T20:46:40.677Z,22.30
2023-05-22T20:49:07.855Z,22.30
2023-05-22T20:51:34.676Z,22.30
2023-05-22T20:54:01.635Z,22.30
2023-05-22T20:56:29.959Z,22.20
2023-05-22T20:58:57.015Z,22.00
2023-05-22T21:01:25.066Z,21.90
2023-05-22T21:03:54.508Z,21.80
2023-05-22T21:06:21.639Z,21.70
2023-05-22T21:08:49.818Z,21.70
2023-05-22T21:11:18.169Z,21.50
2023-05-22T21:13:45.107Z,21.40
2023-05-22T21:16:12.048Z,21.30
2023-05-22T21:18:39.029Z,21.10
2023-05-22T21:21:05.998Z,20.90
2023-05-22T21:23:32.862Z,20.80
2023-05-22T21:25:59.824Z,20.70
2023-05-22T21:28:26.773Z,20.70
2023-05-22T21:30:53.605Z,20.60
2023-05-22T21:33:20.707Z,20.60
2023-05-22T21:35:47.543Z,20.50
2023-05-22T21:38:14.563Z,20.50
2023-05-22T21:40:42.616Z,20.50
2023-05-22T21:43:09.786Z,20.30
2023-05-22T21:45:37.310Z,20.20
2023-05-22T21:48:04.463Z,20.10
2023-05-22T21:50:31.356Z,20.10
2023-05-22T21:52:58.237Z,20.10
2023-05-22T21:55:25.087Z,20.10
2023-05-22T21:57:51.874Z,20.10
2023-05-22T22:00:19.018Z,20.10
2023-05-22T22:02:46.110Z,20.10
2023-05-22T22:05:13.071Z,20.10
2023-05-22T22:07:39.980Z,20.00
2023-05-22T22:10:07.732Z,19.90
2023-05-22T22:12:34.556Z,19.90
2023-05-22T22:15:02.310Z,19.90
2023-05-22T22:17:30.125Z,19.90
2023-05-22T22:19:57.242Z,19.90
2023-05-22T22:22:25.194Z,19.90
2023-05-22T22:24:52.228Z,20.00
2023-05-22T22:27:19.817Z,19.90
2023-05-22T22:29:47.787Z,20.00
2023-05-22T22:32:14.672Z,19.90
2023-05-22T22:34:42.057Z,20.00
2023-05-22T22:37:08.975Z,19.90
2023-05-22T22:39:35.787Z,19.90
2023-05-22T22:42:05.054Z,19.90
2023-05-22T22:44:32.367Z,19.90
2023-05-22T22:47:01.777Z,19.90
2023-05-22T22:49:28.926Z,19.90
2023-05-22T22:51:56.372Z,19.90
2023-05-22T22:54:23.848Z,19.80
2023-05-22T22:56:51.430Z,19.80
2023-05-22T22:59:18.291Z,19.80
2023-05-22T23:01:45.239Z,19.70
2023-05-22T23:04:13.036Z,19.70
2023-05-22T23:06:41.754Z,19.50
2023-05-22T23:09:09.382Z,19.50
2023-05-22T23:11:39.546Z,19.40
2023-05-22T23:14:08.303Z,19.40
2023-05-22T23:16:40.846Z,19.50
2023-05-22T23:19:09.349Z,19.50
2023-05-22T23:21:36.812Z,19.50
2023-05-22T23:24:04.613Z,19.50
2023-05-22T23:26:32.352Z,19.50
2023-05-22T23:29:00.196Z,19.50
2023-05-22T23:31:30.760Z,19.60
2023-05-22T23:33:58.218Z,19.60
2023-05-22T23:36:25.863Z,19.50
2023-05-22T23:38:52.714Z,19.60
2023-05-22T23:41:19.731Z,19.60
2023-05-22T23:43:47.125Z,19.60
2023-05-22T23:46:14.756Z,19.70
2023-05-22T23:48:42.382Z,19.60
2023-05-22T23:51:09.537Z,19.60
2023-05-22T23:53:37.029Z,19.60
2023-05-22T23:56:04.724Z,19.50
2023-05-22T23:58:32.141Z,19.40
